Latest Weather Observations for Roxby Downs

IDS60801

Issued at 2:01 pm CDT Monday 27 January 2020 (issued every 10 minutes, with the page automatically refreshed every 10 minutes)

About weather observations | Map of weather stations | Latest weather observations for SA | Other Formats
Station Details ID: 016096 Name: OLYMPIC DAM AERODROME Lat: -30.48 Lon: 136.88 Height: 98.5 m
Data from the previous 72 hours. | See also: Recent months at Roxby Downs
Date/Time
CDT
Temp
°C
App
Temp
°C
Dew
Point
°C
Rel
Hum
%
Delta-T
°C
Wind Press
QNH
hPa
Press
MSL
hPa
Rain since
9am
mm
Dir  Spd
km/h
Gust
km/h
Spd
kts
Gust
kts
27/02:00pm 37.0 34.8 7.9 17 16.5 S 9 20 5 11 1011.8 1011.2 0.0
27/01:30pm 36.2 34.1 8.1 18 15.9 W 9 15 5 8 1012.3 1011.7 0.0
27/01:00pm 35.3 32.4 8.2 19 15.3 NNE 13 17 7 9 1012.5 1011.9 0.0
27/12:30pm 35.3 33.4 8.9 20 15.1 E 9 19 5 10 1012.8 1012.2 0.0
27/12:00pm 34.7 32.3 9.9 22 14.4 ESE 13 22 7 12 1013.0 1012.4 0.0
27/11:30am 33.0 30.8 12.1 28 12.4 SSE 15 26 8 14 1013.5 1012.9 0.0
27/11:00am 31.8 29.6 12.1 30 11.7 SE 15 22 8 12 1013.8 1013.2 0.0
27/10:30am 30.1 27.8 13.0 35 10.2 SE 17 22 9 12 1013.9 1013.3 0.0
27/10:00am 28.6 26.2 13.7 40 8.9 SSE 19 24 10 13 1014.1 1013.5 0.0
27/09:30am 27.4 25.1 14.1 44 8.0 S 19 28 10 15 1014.1 1013.5 0.0
27/09:00am 26.5 24.6 14.3 47 7.3 S 17 20 9 11 1014.1 1013.5 0.0
27/08:30am 25.0 23.1 14.2 51 6.4 SSE 17 20 9 11 1013.7 1013.1 0.0
27/08:00am 23.6 21.9 14.6 57 5.4 SSE 17 24 9 13 1013.3 1012.7 0.0
27/07:30am 22.9 21.6 14.7 60 4.9 SSE 15 19 8 10 1013.0 1012.4 0.0
27/07:00am 22.4 20.7 14.8 62 4.5 S 17 20 9 11 1013.0 1012.4 0.0
27/06:30am 22.4 21.0 14.5 61 4.7 SSW 15 20 8 11 1012.7 1012.1 0.0
27/06:00am 22.7 21.7 14.5 60 4.9 S 13 17 7 9 1012.2 1011.6 0.0
27/05:30am 23.0 22.3 14.3 58 5.1 S 11 15 6 8 1011.9 1011.3 0.0
27/05:00am 23.4 22.0 14.4 57 5.3 S 15 19 8 10 1011.8 1011.2 0.0
27/04:30am 23.9 22.3 14.0 54 5.8 S 15 20 8 11 1011.9 1011.3 0.0
27/04:00am 24.2 22.6 14.0 53 6.0 S 15 19 8 10 1012.0 1011.4 0.0
27/03:30am 24.8 22.7 13.7 50 6.5 S 17 22 9 12 1011.8 1011.2 0.0
27/03:00am 25.4 23.2 13.3 47 7.1 SSE 17 24 9 13 1011.9 1011.3 0.0
27/02:30am 26.3 22.9 11.2 38 8.6 S 20 28 11 15 1012.2 1011.6 0.0
27/02:00am 27.4 23.8 9.7 33 9.9 SSE 19 26 10 14 1012.3 1011.7 0.0
27/01:30am 27.9 24.4 8.7 30 10.6 SE 17 24 9 13 1012.4 1011.8 0.0
27/01:00am 28.5 25.5 9.2 30 10.7 SE 15 20 8 11 1012.4 1011.8 0.0
27/12:30am 29.2 26.1 8.8 28 11.3 SE 15 20 8 11 1012.3 1011.7 0.0
27/12:00am 29.2 26.1 7.2 25 11.9 SSE 13 15 7 8 1012.3 1011.7 0.0
 
Date/Time
CDT
Temp
°C
App
Temp
°C
Dew
Point
°C
Rel
Hum
%
Delta-T
°C
Wind Press
QNH
hPa
Press
MSL
hPa
Rain since
9am
mm
Dir  Spd
km/h
Gust
km/h
Spd
kts
Gust
kts
26/11:30pm 29.6 26.3 6.3 23 12.4 SSW 13 17 7 9 1012.0 1011.4 0.0
26/11:00pm 27.6 25.2 5.2 24 11.6 SSW 7 9 4 5 1012.0 1011.4 0.0
26/10:30pm 29.1 26.8 5.9 23 12.3 SSW 7 9 4 5 1011.8 1011.2 0.0
26/10:00pm 31.1 28.9 6.2 21 13.4 SSW 7 9 4 5 1011.6 1011.0 0.0
26/09:30pm 32.7 29.3 6.1 19 14.4 S 13 17 7 9 1011.3 1010.7 0.0
26/09:00pm 33.3 30.0 6.6 19 14.6 SSW 13 19 7 10 1011.0 1010.4 0.0
26/08:30pm 34.2 30.5 6.5 18 15.2 S 15 24 8 13 1010.8 1010.2 0.0
26/08:00pm 34.8 30.3 6.2 17 15.6 SSE 19 30 10 16 1010.6 1009.9 0.0
26/07:30pm 35.5 30.9 5.8 16 16.2 SSW 19 28 10 15 1010.3 1009.6 0.0
26/07:00pm 35.8 30.7 6.1 16 16.3 SSE 22 30 12 16 1010.1 1009.4 0.0
26/06:30pm 36.2 32.0 5.5 15 16.7 S 17 32 9 17 1010.0 1009.3 0.0
26/06:00pm 36.1 32.4 4.4 14 17.0 S 13 24 7 13 1010.1 1009.4 0.0
26/05:30pm 36.0 30.9 4.3 14 17.0 S 20 32 11 17 1010.3 1009.6 0.0
26/05:00pm 36.2 31.4 4.5 14 17.0 S 19 33 10 18 1010.5 1009.8 0.0
26/04:30pm 36.5 31.5 4.7 14 17.2 SSE 20 32 11 17 1010.7 1010.1 0.0
26/04:00pm 36.7 32.7 4.9 14 17.2 SSE 15 26 8 14 1011.0 1010.4 0.0
26/03:30pm 36.3 31.5 5.5 15 16.8 S 20 32 11 17 1011.3 1010.7 0.0
26/03:00pm 36.1 32.6 5.4 15 16.7 SE 13 28 7 15 1011.7 1011.1 0.0
26/02:30pm 35.2 30.8 4.7 15 16.3 SSW 17 30 9 16 1012.1 1011.5 0.0
26/02:00pm 34.7 31.1 5.2 16 15.9 SSE 13 24 7 13 1012.6 1012.0 0.0
26/01:30pm 34.2 31.1 5.7 17 15.4 SE 11 24 6 13 1013.0 1012.4 0.0
26/01:00pm 33.6 30.6 6.0 18 15.0 SSE 11 19 6 10 1013.4 1012.8 0.0
26/12:30pm 33.0 29.1 7.1 20 14.2 ESE 17 24 9 13 1013.8 1013.2 0.0
26/12:00pm 32.0 29.5 8.3 23 13.2 SSE 11 20 6 11 1014.1 1013.5 0.0
26/11:30am 31.4 28.7 9.0 25 12.6 SE 13 20 7 11 1014.3 1013.7 0.0
26/11:00am 30.6 27.3 9.5 27 11.9 SE 17 26 9 14 1014.4 1013.8 0.0
26/10:30am 29.9 26.6 10.9 31 10.9 SE 19 24 10 13 1014.4 1013.8 0.0
26/10:00am 28.3 24.8 10.9 34 9.9 SE 20 28 11 15 1014.5 1013.9 0.0
26/09:30am 27.0 23.8 11.9 39 8.7 SSE 20 26 11 14 1014.4 1013.8 0.0
26/09:00am 25.3 22.8 12.2 44 7.5 SE 17 22 9 12 1014.5 1013.9 0.0
26/08:30am 24.0 21.0 12.6 49 6.6 SSE 20 26 11 14 1014.3 1013.7 0.0
26/08:00am 22.7 19.7 12.6 53 5.8 SSE 20 26 11 14 1013.9 1013.3 0.0
26/07:30am 21.8 19.4 12.6 56 5.2 SSE 17 22 9 12 1013.5 1012.9 0.0
26/07:00am 21.2 18.7 12.3 57 5.0 SSE 17 20 9 11 1013.2 1012.6 0.0
26/06:30am 21.4 18.9 12.3 56 5.2 SSE 17 20 9 11 1012.9 1012.3 0.0
26/06:00am 21.6 19.1 12.2 55 5.3 SSE 17 20 9 11 1012.6 1012.0 0.0
26/05:30am 21.9 18.8 11.6 52 5.8 SSE 19 24 10 13 1012.5 1011.9 0.0
26/05:00am 22.3 19.1 11.4 50 6.1 SSE 19 26 10 14 1012.2 1011.6 0.0
26/04:30am 22.6 19.2 11.4 49 6.3 SSE 20 24 11 13 1012.1 1011.5 0.0
26/04:00am 23.1 19.7 11.2 47 6.7 SSE 20 26 11 14 1012.1 1011.5 0.0
26/03:30am 23.6 19.5 11.3 46 6.9 SSE 24 32 13 17 1012.1 1011.5 0.0
26/03:00am 24.4 20.1 10.7 42 7.7 SSE 24 32 13 17 1012.2 1011.6 0.0
26/02:30am 25.1 20.4 9.4 37 8.6 SSE 24 30 13 16 1012.2 1011.6 0.0
26/02:00am 25.7 21.4 5.3 27 10.4 SSE 17 20 9 11 1012.0 1011.4 0.0
26/01:30am 22.3 19.4 1.3 25 9.7 S 6 7 3 4 1012.0 1011.4 0.0
26/01:00am 23.0 19.8 0.8 23 10.3 S 7 7 4 4 1012.1 1011.5 0.0
26/12:30am 24.3 21.3 0.6 21 11.0 S 6 7 3 4 1012.3 1011.7 0.0
26/12:00am 26.6 23.5 1.1 19 12.2 SSE 7 9 4 5 1012.3 1011.7 0.0
 
Date/Time
CDT
Temp
°C
App
Temp
°C
Dew
Point
°C
Rel
Hum
%
Delta-T
°C
Wind Press
QNH
hPa
Press
MSL
hPa
Rain since
9am
mm
Dir  Spd
km/h
Gust
km/h
Spd
kts
Gust
kts
25/11:30pm 27.9 23.9 0.6 17 13.0 S 11 13 6 7 1012.3 1011.7 0.0
25/11:00pm 29.1 24.4 0.7 16 13.7 SSW 15 17 8 9 1012.4 1011.8 0.0
25/10:30pm 29.6 25.1 2.0 17 13.7 SSW 15 20 8 11 1012.2 1011.6 0.0
25/10:00pm 30.4 25.4 3.4 18 13.8 SSW 19 26 10 14 1012.1 1011.5 0.0
25/09:30pm 30.9 26.5 4.6 19 13.7 SSW 17 24 9 13 1011.8 1011.2 0.0
25/09:00pm 31.6 27.4 3.6 17 14.4 S 15 17 8 9 1011.5 1010.9 0.0
25/08:30pm 32.2 28.2 4.9 18 14.4 S 15 22 8 12 1011.4 1010.8 0.0
25/08:00pm 33.0 29.2 3.9 16 15.2 SSW 13 20 7 11 1011.2 1010.6 0.0
25/07:30pm 33.6 30.8 3.4 15 15.7 SSW 7 20 4 11 1010.8 1010.2 0.0
25/07:00pm 34.3 29.4 2.0 13 16.5 SW 17 24 9 13 1010.6 1009.9 0.0
25/06:30pm 34.5 29.8 3.1 14 16.3 SW 17 24 9 13 1010.5 1009.8 0.0
25/06:00pm 34.1 29.5 1.8 13 16.4 S 15 22 8 12 1010.5 1009.8 0.0
25/05:30pm 34.3 30.3 3.0 14 16.2 SSW 13 24 7 13 1010.8 1010.2 0.0
25/05:00pm 34.4 30.6 2.0 13 16.5 NNW 11 22 6 12 1011.1 1010.5 0.0
25/04:30pm 34.6 30.3 3.2 14 16.4 WSW 15 24 8 13 1011.1 1010.5 0.0
25/04:00pm 34.1 30.3 3.8 15 15.9 SSW 13 22 7 12 1011.5 1010.9 0.0
25/03:30pm 33.7 30.2 3.5 15 15.7 SE 11 20 6 11 1011.8 1011.2 0.0
25/03:00pm 33.6 28.6 3.4 15 15.7 SSW 19 28 10 15 1012.4 1011.8 0.0
25/02:30pm 33.2 30.7 4.9 17 15.0 W 7 15 4 8 1012.8 1012.2 0.0
25/02:00pm 31.9 28.5 3.8 17 14.5 W 11 19 6 10 1013.3 1012.7 0.0
25/01:30pm 32.2 29.9 4.9 18 14.4 NNW 6 11 3 6 1013.7 1013.1 0.0
25/01:00pm 30.6 27.8 5.1 20 13.4 NNE 9 15 5 8 1014.0 1013.4 0.0
25/12:30pm 30.3 28.0 4.9 20 13.3 ENE 6 13 3 7 1014.4 1013.8 0.0
25/12:00pm 30.6 28.3 5.8 21 13.2 S 7 11 4 6 1014.7 1014.1 0.0
25/11:30am 29.2 26.6 6.0 23 12.3 E 9 15 5 8 1015.1 1014.5 0.0
25/11:00am 28.7 26.0 7.3 26 11.5 ESE 11 17 6 9 1015.3 1014.7 0.0
25/10:30am 27.4 24.5 8.3 30 10.4 E 13 20 7 11 1015.5 1014.9 0.0
25/10:00am 25.9 23.3 9.3 35 9.1 ESE 13 17 7 9 1015.8 1015.2 0.0
25/09:30am 24.3 21.3 10.6 42 7.6 SE 17 20 9 11 1015.7 1015.1 0.0
25/09:00am 22.7 19.5 11.1 48 6.5 SSE 19 24 10 13 1015.5 1014.9 0.0
25/08:30am 21.3 18.6 11.6 54 5.4 SSE 17 20 9 11 1015.4 1014.8 0.0
25/08:00am 20.2 17.5 11.7 58 4.7 S 17 22 9 12 1015.0 1014.4 0.0
25/07:30am 19.4 16.9 11.2 59 4.5 S 15 19 8 10 1014.7 1014.1 0.0
25/07:00am 19.0 16.1 11.1 60 4.3 S 17 20 9 11 1014.3 1013.7 0.0
25/06:30am 19.2 16.0 9.9 55 5.0 S 17 20 9 11 1014.1 1013.5 0.0
25/06:00am 19.6 15.8 9.2 51 5.5 S 19 24 10 13 1013.7 1013.1 0.0
25/05:30am 19.7 16.3 7.8 46 6.1 SSE 15 19 8 10 1013.6 1013.0 0.0
25/05:00am 19.0 16.2 5.1 40 6.8 S 9 13 5 7 1013.5 1012.9 0.0
25/04:30am 19.1 16.3 5.2 40 6.8 S 9 11 5 6 1013.5 1012.9 0.0
25/04:00am 19.7 17.2 5.0 38 7.2 SSW 7 11 4 6 1013.5 1012.9 0.0
25/03:30am 20.5 17.1 6.1 39 7.2 SSE 13 19 7 10 1013.9 1013.3 0.0
25/03:00am 18.1 15.8 5.0 42 6.3 SSE 6 7 3 4 1013.8 1013.2 0.0
25/02:30am 18.9 16.4 5.0 40 6.8 SSW 7 9 4 5 1013.7 1013.1 0.0
25/02:00am 19.4 18.2 4.7 38 7.1 CALM 0 0 0 0 1013.8 1013.2 0.0
25/01:30am 19.9 18.7 4.4 36 7.5 CALM 0 0 0 0 1013.9 1013.3 0.0
25/01:00am 21.2 19.0 5.1 35 8.0 SSW 6 7 3 4 1014.1 1013.5 0.0
25/12:30am 22.9 20.2 5.8 33 8.7 SSW 9 11 5 6 1014.0 1013.4 0.0
25/12:00am 22.4 20.0 5.4 33 8.5 SSW 7 7 4 4 1014.2 1013.6 0.0
 
Date/Time
CDT
Temp
°C
App
Temp
°C
Dew
Point
°C
Rel
Hum
%
Delta-T
°C
Wind Press
QNH
hPa
Press
MSL
hPa
Rain since
9am
mm
Dir  Spd
km/h
Gust
km/h
Spd
kts
Gust
kts
24/11:30pm 23.4 21.0 5.3 31 9.1 SSW 7 9 4 5 1014.1 1013.5 0.0
24/11:00pm 24.3 21.5 5.1 29 9.7 SSW 9 9 5 5 1014.2 1013.6 0.0
24/10:30pm 25.3 22.5 5.0 27 10.3 SSW 9 13 5 7 1013.8 1013.2 0.0
24/10:00pm 26.0 22.4 5.0 26 10.7 SSW 13 17 7 9 1013.6 1013.0 0.0
24/09:30pm 26.5 23.0 5.5 26 10.8 SSW 13 20 7 11 1013.4 1012.8 0.0
24/09:00pm 27.1 22.3 4.8 24 11.4 S 19 24 10 13 1013.0 1012.4 0.0
24/08:30pm 27.5 23.2 5.1 24 11.6 S 17 24 9 13 1012.7 1012.1 0.0
24/08:00pm 28.2 22.8 4.5 22 12.1 S 22 28 12 15 1012.3 1011.7 0.0
24/07:30pm 28.9 23.5 4.4 21 12.6 SSW 22 30 12 16 1012.1 1011.5 0.0
24/07:00pm 29.3 24.5 4.7 21 12.7 S 19 28 10 15 1011.8 1011.2 0.0
24/06:30pm 29.8 25.0 4.4 20 13.1 S 19 28 10 15 1011.9 1011.3 0.0
24/06:00pm 29.1 24.5 3.9 20 12.9 S 17 24 9 13 1012.0 1011.4 0.0
24/05:30pm 29.1 24.9 3.9 20 12.9 S 15 22 8 12 1012.3 1011.7 0.0
24/05:00pm 29.2 25.5 4.6 21 12.7 S 13 44 7 24 1012.7 1012.1 0.0
24/04:30pm 28.3 25.0 4.6 22 12.2 SSE 11 24 6 13 1013.0 1012.4 0.0
24/04:00pm 27.7 24.8 4.7 23 11.8 SSE 9 15 5 8 1013.4 1012.8 0.0
24/03:30pm 27.0 23.5 3.5 22 11.7 - 11 24 6 13 1013.6 1013.0 0.0
24/03:00pm 26.9 23.4 3.4 22 11.7 S 11 19 6 10 1013.9 1013.3 0.0
24/02:30pm 26.2 22.3 3.5 23 11.3 SSE 13 24 7 13 1014.5 1013.9 0.0

Other formats

Comma delimited format used in spreadsheet applications
http://www.bom.gov.au/fwo/IDS60801/IDS60801.95658.axf

JavaScript Object Notation format (JSON) in row-major order
http://www.bom.gov.au/fwo/IDS60801/IDS60801.95658.json

Data quality

Most of these data are generated automatically and are frequently updated. Quality checks on data are not normally performed. It is possible for incorrect values to appear. Refer to information at About Latest Weather Observations and please check the disclaimer before using these data.